Time;durP1;ratioP1;P1;durP2;ratioP2;P2;SDS_P1;SDS_P2;PMS_P1;PMS_P2;Temp;Humidity;BMP_temperature;BMP_pressure;BME280_temperature;BME280_humidity;BME280_pressure;Samples;Min_cycle;Max_cycle;Signal;HPM_P1;HPM_P2
2022/08/12 00:44:15;;;;;;;10.90;5.10;;;;;;;;;;5037846;28;20074;-66
2022/08/12 00:46:49;;;;;;;7.72;4.75;;;;;;;;;;5041168;28;20071;-66
2022/08/12 00:49:16;;;;;;;8.95;5.18;;;;;;;;;;5036681;28;20044;-66
2022/08/12 00:54:27;;;;;;;9.05;5.07;;;;;;;;;;5036197;28;20119;-66
2022/08/12 00:56:54;;;;;;;13.73;5.40;;;;;;;;;;5041909;28;20116;-65
2022/08/12 00:59:20;;;;;;;12.52;5.70;;;;;;;;;;5037624;28;20259;-66
2022/08/12 01:01:47;;;;;;;9.98;5.32;;;;;;;;;;5034661;28;20036;-66
2022/08/12 01:12:33;;;;;;;9.13;5.28;;;;;;;;;;5039061;28;22746;-66
2022/08/12 01:15:00;;;;;;;9.90;5.47;;;;;;;;;;5039304;28;20024;-66
2022/08/12 01:17:26;;;;;;;12.32;5.63;;;;;;;;;;5034866;28;20029;-66
2022/08/12 01:19:54;;;;;;;10.95;5.95;;;;;;;;;;5042087;28;20490;-66
2022/08/12 01:22:21;;;;;;;12.57;5.78;;;;;;;;;;5038191;28;20036;-66
2022/08/12 01:24:50;;;;;;;9.48;5.47;;;;;;;;;;5042755;28;20017;-66
2022/08/12 01:27:18;;;;;;;10.52;5.43;;;;;;;;;;5042261;28;20215;-66
2022/08/12 01:29:47;;;;;;;8.85;5.20;;;;;;;;;;5039431;28;20127;-66
2022/08/12 01:32:13;;;;;;;9.85;5.35;;;;;;;;;;5038440;28;20065;-66
2022/08/12 01:34:44;;;;;;;8.35;5.43;;;;;;;;;;5037714;28;20036;-66
2022/08/12 01:37:13;;;;;;;13.82;5.60;;;;;;;;;;5041470;28;20116;-66
2022/08/12 01:39:53;;;;;;;9.90;5.57;;;;;;;;;;5039663;28;20668;-66
2022/08/12 01:42:21;;;;;;;9.73;5.65;;;;;;;;;;5039706;28;20024;-66
2022/08/12 01:44:48;;;;;;;11.13;5.50;;;;;;;;;;5042765;28;20533;-66
2022/08/12 01:47:17;;;;;;;9.23;5.28;;;;;;;;;;5038139;28;20032;-66
2022/08/12 01:49:53;;;;;;;9.40;5.03;;;;;;;;;;5042354;28;20263;-66
2022/08/12 01:52:25;;;;;;;8.93;5.05;;;;;;;;;;5036183;28;20683;-65
2022/08/12 01:54:52;;;;;;;12.05;5.30;;;;;;;;;;5054477;28;20036;-65
2022/08/12 01:57:43;;;;;;;8.82;5.10;;;;;;;;;;5035058;28;20029;-65
2022/08/12 02:00:12;;;;;;;8.98;5.15;;;;;;;;;;5042843;28;20040;-65
2022/08/12 02:02:57;;;;;;;9.25;5.13;;;;;;;;;;5040834;28;20111;-65
2022/08/12 02:11:22;;;;;;;15.57;10.32;;;;;;;;;;5039987;28;20043;-65
2022/08/12 02:14:01;;;;;;;13.23;7.95;;;;;;;;;;5041461;28;20484;-65
2022/08/12 02:16:30;;;;;;;12.15;7.18;;;;;;;;;;5038871;28;20025;-65
2022/08/12 02:19:24;;;;;;;11.85;6.63;;;;;;;;;;5041508;28;20139;-65
2022/08/12 02:22:03;;;;;;;12.43;6.18;;;;;;;;;;5023039;28;20115;-65
2022/08/12 02:24:30;;;;;;;12.02;5.93;;;;;;;;;;5048554;28;20029;-65
2022/08/12 02:26:57;;;;;;;10.80;5.93;;;;;;;;;;5041770;28;20055;-65
2022/08/12 02:29:23;;;;;;;9.65;5.88;;;;;;;;;;5033628;28;20032;-65
2022/08/12 02:31:51;;;;;;;11.77;6.10;;;;;;;;;;5037318;28;20032;-65
2022/08/12 02:34:17;;;;;;;12.27;5.88;;;;;;;;;;5036599;28;20032;-65
2022/08/12 02:36:44;;;;;;;9.18;6.05;;;;;;;;;;5037319;28;20370;-65
2022/08/12 02:39:14;;;;;;;11.23;5.97;;;;;;;;;;5040886;28;20474;-65
2022/08/12 02:41:45;;;;;;;10.50;5.72;;;;;;;;;;5041399;28;20059;-65
2022/08/12 02:44:13;;;;;;;11.95;6.55;;;;;;;;;;5043216;28;20836;-65
2022/08/12 02:46:41;;;;;;;10.63;5.45;;;;;;;;;;5038948;28;20036;-65
2022/08/12 02:49:10;;;;;;;13.75;6.20;;;;;;;;;;5043523;28;20025;-67
2022/08/12 02:51:41;;;;;;;11.15;5.97;;;;;;;;;;5038084;28;20047;-65
2022/08/12 02:54:07;;;;;;;11.32;6.07;;;;;;;;;;5040487;28;20234;-65
2022/08/12 02:56:39;;;;;;;12.27;6.07;;;;;;;;;;5036800;28;20765;-65
2022/08/12 02:59:10;;;;;;;8.68;5.30;;;;;;;;;;5044563;28;20028;-65
2022/08/12 03:01:45;;;;;;;11.00;5.82;;;;;;;;;;5037784;28;21314;-65
2022/08/12 03:04:13;;;;;;;10.05;5.60;;;;;;;;;;5041223;28;20140;-65
2022/08/12 03:06:45;;;;;;;11.48;5.47;;;;;;;;;;5040794;28;20024;-65
2022/08/12 03:09:13;;;;;;;9.85;5.30;;;;;;;;;;5053408;28;20027;-65
2022/08/12 03:11:47;;;;;;;10.32;5.78;;;;;;;;;;5043392;28;20024;-65
2022/08/12 03:14:14;;;;;;;9.05;5.50;;;;;;;;;;5036383;28;20028;-65
2022/08/12 03:16:40;;;;;;;11.98;5.43;;;;;;;;;;5040453;28;20114;-65
2022/08/12 03:19:07;;;;;;;10.05;5.57;;;;;;;;;;5042561;28;20050;-65
2022/08/12 03:21:37;;;;;;;9.52;4.93;;;;;;;;;;5038074;28;20024;-66
2022/08/12 03:24:04;;;;;;;9.07;5.25;;;;;;;;;;5037854;28;20500;-66
2022/08/12 03:26:32;;;;;;;9.27;5.22;;;;;;;;;;5033670;28;20027;-66
2022/08/12 03:29:00;;;;;;;9.02;5.15;;;;;;;;;;5038275;28;20032;-66
2022/08/12 03:31:28;;;;;;;10.30;5.05;;;;;;;;;;5036372;28;20028;-66
2022/08/12 03:34:07;;;;;;;9.35;4.90;;;;;;;;;;5037089;28;20055;-66
2022/08/12 03:36:34;;;;;;;8.90;4.80;;;;;;;;;;5032027;28;20162;-65
2022/08/12 03:42:08;;;;;;;10.73;5.18;;;;;;;;;;5038158;28;20589;-65
2022/08/12 04:01:21;;;;;;;10.20;5.85;;;;;;;;;;5037537;28;20075;-65
2022/08/12 04:03:51;;;;;;;11.75;5.95;;;;;;;;;;5038707;28;20051;-64
2022/08/12 04:06:40;;;;;;;11.25;6.20;;;;;;;;;;5035153;28;20029;-64
2022/08/12 04:09:06;;;;;;;10.35;6.05;;;;;;;;;;5036784;28;20032;-64
2022/08/12 04:14:22;;;;;;;13.55;6.88;;;;;;;;;;5036249;28;20118;-65
2022/08/12 04:16:49;;;;;;;10.98;6.70;;;;;;;;;;5037588;28;20036;-65
2022/08/12 04:19:16;;;;;;;11.93;6.70;;;;;;;;;;5033108;28;21001;-65
2022/08/12 04:21:42;;;;;;;11.57;6.70;;;;;;;;;;5034206;28;20025;-65
2022/08/12 04:24:09;;;;;;;15.35;6.55;;;;;;;;;;5030334;28;20041;-65
2022/08/12 04:26:35;;;;;;;11.95;6.68;;;;;;;;;;5027466;28;20028;-65
2022/08/12 04:29:02;;;;;;;13.25;7.13;;;;;;;;;;5030366;28;20036;-65
2022/08/12 04:31:35;;;;;;;12.52;6.32;;;;;;;;;;5027448;28;20036;-65
2022/08/12 04:34:02;;;;;;;11.70;6.15;;;;;;;;;;5030179;28;20814;-65
2022/08/12 04:36:28;;;;;;;14.23;6.40;;;;;;;;;;5028976;28;20063;-66
2022/08/12 04:38:55;;;;;;;9.90;5.90;;;;;;;;;;5045838;28;20394;-66
2022/08/12 04:41:21;;;;;;;12.07;5.95;;;;;;;;;;5029916;28;20063;-66
2022/08/12 04:43:47;;;;;;;10.60;5.85;;;;;;;;;;5038242;28;20385;-66
2022/08/12 04:46:14;;;;;;;8.65;5.15;;;;;;;;;;5035147;28;20032;-65
2022/08/12 04:48:40;;;;;;;11.57;5.35;;;;;;;;;;5040846;28;20039;-65
2022/08/12 04:51:06;;;;;;;9.35;5.15;;;;;;;;;;5040729;28;20052;-67
2022/08/12 04:53:33;;;;;;;10.55;5.15;;;;;;;;;;5035922;28;20094;-67
2022/08/12 04:55:59;;;;;;;11.98;5.20;;;;;;;;;;5038468;28;20037;-67
2022/08/12 04:58:26;;;;;;;11.60;5.30;;;;;;;;;;5036462;28;20119;-65
2022/08/12 05:00:52;;;;;;;10.43;4.95;;;;;;;;;;5041271;28;20020;-66
2022/08/12 05:03:18;;;;;;;11.35;5.22;;;;;;;;;;5034088;28;20550;-65
2022/08/12 05:05:45;;;;;;;9.98;4.78;;;;;;;;;;5040272;28;20592;-65
2022/08/12 05:08:15;;;;;;;11.48;4.57;;;;;;;;;;5041625;28;20047;-66
2022/08/12 05:10:43;;;;;;;10.60;4.97;;;;;;;;;;5055566;28;20071;-65
2022/08/12 05:13:13;;;;;;;13.38;5.53;;;;;;;;;;5041053;28;20024;-65
2022/08/12 05:15:39;;;;;;;12.23;5.35;;;;;;;;;;5040772;28;20051;-65
2022/08/12 05:18:05;;;;;;;12.43;5.07;;;;;;;;;;5042350;28;20063;-65
2022/08/12 05:20:33;;;;;;;12.63;5.40;;;;;;;;;;5035862;28;20063;-65
2022/08/12 05:23:09;;;;;;;11.02;4.75;;;;;;;;;;5037397;28;20119;-65
2022/08/12 05:25:35;;;;;;;9.10;4.55;;;;;;;;;;5035575;28;20016;-66
2022/08/12 05:28:02;;;;;;;8.98;5.18;;;;;;;;;;5041928;28;20780;-66
2022/08/12 05:30:29;;;;;;;9.75;4.75;;;;;;;;;;5034318;28;20051;-65
2022/08/12 05:32:56;;;;;;;9.52;5.10;;;;;;;;;;5041000;28;20549;-65
2022/08/12 05:35:22;;;;;;;11.65;5.10;;;;;;;;;;5039761;28;20028;-66
2022/08/12 05:40:38;;;;;;;12.57;5.07;;;;;;;;;;4968401;28;20038;-66
2022/08/12 05:43:05;;;;;;;11.32;5.13;;;;;;;;;;4962643;28;20034;-65
2022/08/12 05:45:31;;;;;;;11.38;5.18;;;;;;;;;;4968319;28;20041;-65
2022/08/12 05:47:57;;;;;;;14.45;5.13;;;;;;;;;;4972147;28;20049;-65
2022/08/12 05:50:24;;;;;;;14.98;5.60;;;;;;;;;;4967558;28;20049;-65
2022/08/12 05:52:51;;;;;;;11.77;4.93;;;;;;;;;;4970864;28;20542;-65
2022/08/12 05:55:19;;;;;;;13.18;5.30;;;;;;;;;;4965227;28;20072;-66
2022/08/12 05:57:48;;;;;;;15.50;5.78;;;;;;;;;;4956084;28;20145;-65
2022/08/12 06:00:16;;;;;;;13.73;5.53;;;;;;;;;;4968079;28;20134;-65
2022/08/12 06:02:42;;;;;;;19.10;6.15;;;;;;;;;;4970919;28;20377;-66
2022/08/12 06:05:09;;;;;;;12.25;5.15;;;;;;;;;;4971519;28;20117;-66
2022/08/12 06:07:45;;;;;;;13.32;4.70;;;;;;;;;;4967685;28;20048;-66
2022/08/12 06:10:12;;;;;;;9.98;4.72;;;;;;;;;;4974537;28;20072;-66
2022/08/12 06:12:38;;;;;;;14.27;5.10;;;;;;;;;;4971859;28;20026;-65
2022/08/12 06:15:04;;;;;;;15.05;5.30;;;;;;;;;;4974676;28;20096;-65
2022/08/12 06:17:31;;;;;;;15.73;6.78;;;;;;;;;;4990771;28;20056;-66
2022/08/12 06:19:57;;;;;;;17.33;6.45;;;;;;;;;;5026553;28;20837;-65
2022/08/12 06:22:24;;;;;;;14.73;5.75;;;;;;;;;;5023145;28;20059;-65
2022/08/12 06:24:52;;;;;;;16.50;5.75;;;;;;;;;;5021360;28;20527;-65
2022/08/12 06:27:18;;;;;;;15.10;5.50;;;;;;;;;;5017319;28;20521;-65
2022/08/12 06:29:44;;;;;;;14.20;5.70;;;;;;;;;;5024620;28;20029;-65
2022/08/12 06:32:10;;;;;;;15.30;6.03;;;;;;;;;;5022040;28;20751;-65
2022/08/12 06:34:37;;;;;;;11.18;5.43;;;;;;;;;;5020196;28;20436;-65
2022/08/12 06:37:04;;;;;;;19.92;6.25;;;;;;;;;;5024131;28;20037;-65
2022/08/12 06:39:30;;;;;;;16.98;6.80;;;;;;;;;;5015833;28;20143;-65
2022/08/12 06:44:41;;;;;;;11.57;5.50;;;;;;;;;;5023519;28;20156;-65
2022/08/12 06:47:07;;;;;;;13.98;5.82;;;;;;;;;;5026179;28;20163;-65
2022/08/12 06:49:35;;;;;;;12.85;6.60;;;;;;;;;;5021461;28;20213;-65
2022/08/12 06:52:03;;;;;;;15.38;7.30;;;;;;;;;;5041583;28;20601;-65
2022/08/12 06:54:29;;;;;;;18.52;10.10;;;;;;;;;;5038923;28;20029;-65
2022/08/12 06:56:56;;;;;;;15.82;6.80;;;;;;;;;;5044322;28;20028;-65
2022/08/12 06:59:22;;;;;;;12.23;6.20;;;;;;;;;;5038211;28;20417;-65
2022/08/12 07:01:49;;;;;;;14.82;6.43;;;;;;;;;;5043303;28;20382;-65
2022/08/12 07:04:15;;;;;;;12.07;5.57;;;;;;;;;;5038276;28;20028;-65
2022/08/12 07:06:43;;;;;;;9.60;5.20;;;;;;;;;;5041516;28;20029;-64
2022/08/12 07:09:09;;;;;;;12.25;5.38;;;;;;;;;;5049318;28;20032;-66
2022/08/12 07:11:38;;;;;;;12.90;4.80;;;;;;;;;;5039482;28;20059;-67
2022/08/12 07:14:04;;;;;;;12.20;4.85;;;;;;;;;;5040040;28;20024;-66
2022/08/12 07:16:51;;;;;;;12.02;4.90;;;;;;;;;;5039311;28;20059;-64
2022/08/12 07:19:16;;;;;;;16.63;4.88;;;;;;;;;;5037339;28;21854;-65
2022/08/12 07:21:42;;;;;;;13.20;4.53;;;;;;;;;;5046528;28;20596;-65
2022/08/12 07:24:08;;;;;;;11.18;4.28;;;;;;;;;;5039885;28;20109;-65
2022/08/12 07:26:38;;;;;;;11.32;4.53;;;;;;;;;;5041557;28;20077;-65
2022/08/12 07:29:04;;;;;;;10.27;3.92;;;;;;;;;;5044415;28;20033;-65
2022/08/12 07:31:30;;;;;;;11.40;3.50;;;;;;;;;;5057440;28;20337;-66
2022/08/12 07:33:57;;;;;;;8.43;3.28;;;;;;;;;;5045300;28;20130;-66
2022/08/12 07:36:24;;;;;;;12.45;4.13;;;;;;;;;;5041265;28;21120;-66
2022/08/12 07:38:50;;;;;;;9.52;3.70;;;;;;;;;;5038321;28;20462;-68
2022/08/12 07:41:16;;;;;;;8.02;3.30;;;;;;;;;;5035196;28;20454;-66
2022/08/12 07:43:47;;;;;;;10.98;3.80;;;;;;;;;;5043303;28;20263;-66
2022/08/12 07:46:14;;;;;;;7.90;3.13;;;;;;;;;;5042230;28;20480;-68
2022/08/12 07:48:45;;;;;;;9.80;3.63;;;;;;;;;;5047635;28;20492;-66
2022/08/12 07:51:11;;;;;;;7.95;3.15;;;;;;;;;;5042966;28;20413;-66
2022/08/12 07:53:38;;;;;;;8.85;3.47;;;;;;;;;;5037929;28;20503;-66
2022/08/12 07:56:05;;;;;;;9.50;3.20;;;;;;;;;;5038476;28;20433;-65
2022/08/12 07:58:32;;;;;;;9.13;3.22;;;;;;;;;;5038373;28;20533;-66
2022/08/12 08:00:59;;;;;;;6.35;2.80;;;;;;;;;;5045849;28;20037;-66
2022/08/12 08:03:33;;;;;;;6.72;2.78;;;;;;;;;;5041842;28;20032;-65
2022/08/12 08:05:59;;;;;;;7.30;2.70;;;;;;;;;;5039851;28;20051;-68
2022/08/12 08:08:26;;;;;;;5.85;2.42;;;;;;;;;;5037352;28;20051;-63
2022/08/12 08:12:52;;;;;;;7.55;2.60;;;;;;;;;;5040787;28;20043;-63
2022/08/12 08:13:41;;;;;;;7.00;2.60;;;;;;;;;;5041925;28;20043;-63
2022/08/12 08:16:07;;;;;;;10.55;2.72;;;;;;;;;;5043693;28;20133;-63
2022/08/12 08:18:33;;;;;;;7.75;2.60;;;;;;;;;;5036386;28;21919;-63
2022/08/12 08:20:59;;;;;;;6.50;2.40;;;;;;;;;;5042796;28;20032;-62
2022/08/12 08:26:12;;;;;;;7.97;2.47;;;;;;;;;;5045749;28;20043;-63
2022/08/12 08:28:38;;;;;;;7.05;2.30;;;;;;;;;;5040950;28;20065;-63
2022/08/12 08:31:04;;;;;;;6.82;2.70;;;;;;;;;;5041351;28;20040;-63
2022/08/12 08:33:31;;;;;;;6.70;2.28;;;;;;;;;;5040869;28;20143;-64
2022/08/12 08:35:58;;;;;;;9.38;2.55;;;;;;;;;;5044859;28;20911;-63
2022/08/12 08:38:24;;;;;;;8.32;3.00;;;;;;;;;;5039105;28;20032;-63
2022/08/12 08:43:35;;;;;;;6.88;2.72;;;;;;;;;;5041990;28;20036;-63
2022/08/12 08:46:04;;;;;;;8.73;2.83;;;;;;;;;;5042076;28;20128;-64
2022/08/12 08:48:32;;;;;;;6.38;2.40;;;;;;;;;;5040541;28;20039;-65
2022/08/12 08:50:58;;;;;;;7.70;2.53;;;;;;;;;;5043679;28;21853;-64
2022/08/12 08:53:25;;;;;;;5.90;2.42;;;;;;;;;;5038906;28;20470;-63
2022/08/12 08:55:52;;;;;;;6.63;2.63;;;;;;;;;;5045172;28;20390;-63
2022/08/12 08:58:20;;;;;;;10.13;2.63;;;;;;;;;;5045104;28;20039;-63
2022/08/12 09:00:49;;;;;;;8.57;2.60;;;;;;;;;;5051981;28;20452;-63
2022/08/12 09:03:15;;;;;;;6.05;2.30;;;;;;;;;;5047239;28;20490;-62
2022/08/12 09:05:41;;;;;;;5.97;2.30;;;;;;;;;;5044084;28;20028;-64
2022/08/12 09:08:08;;;;;;;5.72;2.50;;;;;;;;;;5042262;28;20345;-64
2022/08/12 09:10:34;;;;;;;7.82;2.70;;;;;;;;;;5039904;28;20079;-64
2022/08/12 09:15:46;;;;;;;6.38;2.30;;;;;;;;;;5041084;28;20039;-64
2022/08/12 09:18:12;;;;;;;7.85;2.58;;;;;;;;;;5039496;28;20081;-63
2022/08/12 09:20:39;;;;;;;7.63;2.70;;;;;;;;;;5040269;28;20035;-64
2022/08/12 09:23:09;;;;;;;6.05;2.17;;;;;;;;;;5043447;28;20071;-64
2022/08/12 09:25:36;;;;;;;7.45;2.60;;;;;;;;;;5037823;28;20541;-63
2022/08/12 09:28:03;;;;;;;6.35;2.50;;;;;;;;;;5043540;28;20036;-64
2022/08/12 09:30:29;;;;;;;9.35;2.90;;;;;;;;;;5035906;28;20085;-64
2022/08/12 09:32:57;;;;;;;7.40;2.65;;;;;;;;;;5041086;28;20600;-63
2022/08/12 09:35:30;;;;;;;6.78;2.60;;;;;;;;;;5053263;28;20662;-63
2022/08/12 09:37:56;;;;;;;8.63;2.47;;;;;;;;;;5053593;28;20043;-63
2022/08/12 09:40:23;;;;;;;8.07;2.63;;;;;;;;;;5054149;28;20129;-63
2022/08/12 09:45:35;;;;;;;6.65;2.45;;;;;;;;;;5045470;28;20071;-62
2022/08/12 09:48:07;;;;;;;11.20;2.58;;;;;;;;;;5042690;28;20360;-64
2022/08/12 09:50:33;;;;;;;7.20;2.72;;;;;;;;;;5041993;28;21207;-65
2022/08/12 09:53:23;;;;;;;7.80;2.55;;;;;;;;;;5045171;28;20442;-63
2022/08/12 09:55:56;;;;;;;10.25;2.78;;;;;;;;;;5037890;28;20442;-63
2022/08/12 09:58:27;;;;;;;9.85;2.10;;;;;;;;;;5045077;28;20498;-64
2022/08/12 10:00:55;;;;;;;10.43;2.50;;;;;;;;;;5046946;28;20028;-65
2022/08/12 10:03:25;;;;;;;7.25;2.50;;;;;;;;;;5042938;28;20024;-63
2022/08/12 10:05:52;;;;;;;9.85;2.53;;;;;;;;;;5048969;28;20020;-66
2022/08/12 10:08:18;;;;;;;8.80;2.30;;;;;;;;;;5045686;28;20033;-67
2022/08/12 10:13:43;;;;;;;8.02;2.45;;;;;;;;;;5040366;28;20537;-63
2022/08/12 10:16:12;;;;;;;7.25;2.70;;;;;;;;;;5047119;28;20656;-63
2022/08/12 10:18:43;;;;;;;8.25;2.33;;;;;;;;;;5049548;28;20119;-65
2022/08/12 10:21:11;;;;;;;7.85;2.50;;;;;;;;;;5050606;28;20063;-64
2022/08/12 10:23:38;;;;;;;8.15;2.53;;;;;;;;;;5048675;28;20032;-62
2022/08/12 10:31:34;;;;;;;6.38;2.10;;;;;;;;;;5048428;28;20696;-62
2022/08/12 10:34:00;;;;;;;7.72;2.30;;;;;;;;;;5049141;28;20039;-63
2022/08/12 10:36:27;;;;;;;9.40;2.65;;;;;;;;;;5044655;28;20466;-64
2022/08/12 10:38:53;;;;;;;8.82;2.28;;;;;;;;;;5047482;28;20043;-64
2022/08/12 10:44:04;;;;;;;9.00;2.63;;;;;;;;;;5050830;28;20604;-64
2022/08/12 10:46:31;;;;;;;8.52;2.33;;;;;;;;;;5048358;28;20111;-65
2022/08/12 10:48:58;;;;;;;8.45;2.60;;;;;;;;;;5051170;28;20507;-67
2022/08/12 10:51:30;;;;;;;10.23;2.42;;;;;;;;;;5040117;28;20146;-67
2022/08/12 10:53:56;;;;;;;8.80;2.45;;;;;;;;;;5052368;28;20032;-63
2022/08/12 10:56:23;;;;;;;6.70;2.10;;;;;;;;;;5045594;28;20113;-66
2022/08/12 10:58:50;;;;;;;8.18;2.35;;;;;;;;;;5046653;28;20039;-64
2022/08/12 11:01:17;;;;;;;10.23;2.17;;;;;;;;;;5041642;28;20470;-64
2022/08/12 11:03:43;;;;;;;9.48;2.03;;;;;;;;;;5044231;28;20486;-64
2022/08/12 11:06:10;;;;;;;14.40;2.25;;;;;;;;;;5053466;28;20024;-64
2022/08/12 11:08:38;;;;;;;7.30;2.00;;;;;;;;;;5047196;28;20028;-66
2022/08/12 11:11:07;;;;;;;8.63;2.30;;;;;;;;;;5050145;28;20066;-63
2022/08/12 11:13:36;;;;;;;9.02;2.20;;;;;;;;;;5045666;28;20033;-63
2022/08/12 11:16:02;;;;;;;6.25;2.00;;;;;;;;;;5047318;28;20377;-65
2022/08/12 11:18:29;;;;;;;6.60;2.17;;;;;;;;;;5047261;28;20473;-67
2022/08/12 11:20:55;;;;;;;7.80;2.30;;;;;;;;;;5045135;28;20573;-68
2022/08/12 11:23:21;;;;;;;6.88;2.30;;;;;;;;;;5046377;28;20543;-65
2022/08/12 11:25:51;;;;;;;8.13;2.50;;;;;;;;;;5044135;28;20511;-64
2022/08/12 11:28:17;;;;;;;8.88;2.58;;;;;;;;;;5041459;28;20551;-64
2022/08/12 11:30:44;;;;;;;10.27;2.40;;;;;;;;;;5040945;28;20238;-63
2022/08/12 11:33:10;;;;;;;9.15;2.13;;;;;;;;;;5042092;28;20585;-65
2022/08/12 11:35:42;;;;;;;7.40;2.10;;;;;;;;;;5046058;28;20370;-65
2022/08/12 11:38:08;;;;;;;7.90;2.08;;;;;;;;;;5048987;28;20035;-65
2022/08/12 11:40:34;;;;;;;9.35;2.20;;;;;;;;;;5047956;28;20040;-62
2022/08/12 11:43:01;;;;;;;8.02;2.10;;;;;;;;;;5048081;28;20571;-63
2022/08/12 11:45:27;;;;;;;6.90;2.15;;;;;;;;;;5043916;28;20043;-65
2022/08/12 11:47:54;;;;;;;6.57;2.20;;;;;;;;;;5046680;28;20035;-66
2022/08/12 11:50:21;;;;;;;9.75;2.42;;;;;;;;;;5043277;28;20073;-66
2022/08/12 11:52:47;;;;;;;8.48;2.30;;;;;;;;;;5046446;28;20486;-66
2022/08/12 11:55:14;;;;;;;10.38;2.38;;;;;;;;;;5040440;28;20139;-63
2022/08/12 11:57:48;;;;;;;8.65;2.20;;;;;;;;;;5048073;28;20406;-63
2022/08/12 12:00:15;;;;;;;8.52;2.50;;;;;;;;;;5042562;28;20055;-64
2022/08/12 12:02:42;;;;;;;7.03;2.10;;;;;;;;;;5045093;28;20413;-63
2022/08/12 12:05:08;;;;;;;7.13;2.15;;;;;;;;;;5040059;28;20035;-63
2022/08/12 12:07:37;;;;;;;9.05;2.50;;;;;;;;;;5040249;28;20395;-63
2022/08/12 12:10:04;;;;;;;8.48;2.35;;;;;;;;;;5048088;28;20324;-65
2022/08/12 12:12:30;;;;;;;21.27;3.33;;;;;;;;;;5044710;28;20093;-61
2022/08/12 12:14:57;;;;;;;13.43;2.72;;;;;;;;;;5043211;28;20159;-62
2022/08/12 12:17:24;;;;;;;7.72;2.20;;;;;;;;;;5038395;28;20062;-65
2022/08/12 12:19:51;;;;;;;6.50;2.33;;;;;;;;;;5041820;28;20066;-66
2022/08/12 12:22:18;;;;;;;8.15;2.10;;;;;;;;;;5046214;28;20017;-61
2022/08/12 12:24:46;;;;;;;6.60;2.20;;;;;;;;;;5044302;28;20032;-62
2022/08/12 12:27:12;;;;;;;7.30;2.25;;;;;;;;;;5037075;28;20019;-62
2022/08/12 12:29:38;;;;;;;6.20;2.10;;;;;;;;;;5042914;28;20475;-62
2022/08/12 12:32:05;;;;;;;6.30;2.10;;;;;;;;;;5048330;28;20064;-66
2022/08/12 12:34:31;;;;;;;6.82;2.00;;;;;;;;;;5043178;28;21023;-66
2022/08/12 12:36:57;;;;;;;6.38;2.28;;;;;;;;;;5044562;28;21955;-65
2022/08/12 12:39:23;;;;;;;6.95;1.90;;;;;;;;;;5039935;28;20912;-62
2022/08/12 12:41:49;;;;;;;8.23;2.00;;;;;;;;;;5046228;28;20052;-66
2022/08/12 12:44:16;;;;;;;5.90;2.03;;;;;;;;;;5036667;28;20123;-63
2022/08/12 12:46:42;;;;;;;7.40;2.17;;;;;;;;;;5044393;28;20041;-64
2022/08/12 12:49:08;;;;;;;10.55;2.00;;;;;;;;;;5041536;28;20028;-63
2022/08/12 12:51:34;;;;;;;7.85;2.00;;;;;;;;;;5038542;28;20056;-62
2022/08/12 12:54:00;;;;;;;5.53;2.00;;;;;;;;;;5041975;28;20042;-62
2022/08/12 12:56:26;;;;;;;6.20;1.88;;;;;;;;;;5033423;28;20032;-63
2022/08/12 12:58:53;;;;;;;6.00;1.98;;;;;;;;;;5043531;28;20071;-63
2022/08/12 13:01:26;;;;;;;4.47;1.90;;;;;;;;;;5041285;28;20017;-63
2022/08/12 13:03:55;;;;;;;5.72;2.05;;;;;;;;;;5046168;28;20552;-63
2022/08/12 13:06:28;;;;;;;5.57;1.90;;;;;;;;;;5042561;28;20401;-63
2022/08/12 13:08:55;;;;;;;6.40;1.80;;;;;;;;;;5043164;28;20669;-64
2022/08/12 13:11:21;;;;;;;5.22;2.08;;;;;;;;;;5038276;28;20028;-62
2022/08/12 13:13:52;;;;;;;7.80;2.13;;;;;;;;;;5043960;28;20036;-61
2022/08/12 13:16:21;;;;;;;7.32;2.00;;;;;;;;;;5041472;28;20027;-62
2022/08/12 13:18:51;;;;;;;6.50;1.92;;;;;;;;;;5045594;28;20075;-64
2022/08/12 13:21:18;;;;;;;8.18;1.80;;;;;;;;;;5050563;28;20067;-62
2022/08/12 13:23:45;;;;;;;9.23;2.22;;;;;;;;;;5045939;28;20120;-62
2022/08/12 13:26:12;;;;;;;6.63;2.00;;;;;;;;;;5048944;28;20418;-62
2022/08/12 13:28:41;;;;;;;6.25;1.83;;;;;;;;;;5049341;28;20744;-63
2022/08/12 13:31:08;;;;;;;6.63;1.85;;;;;;;;;;5051535;28;20031;-62
2022/08/12 13:33:34;;;;;;;10.32;2.42;;;;;;;;;;5049408;28;20039;-61
2022/08/12 13:36:02;;;;;;;9.63;2.10;;;;;;;;;;5047176;28;20030;-62
2022/08/12 13:38:38;;;;;;;5.43;1.80;;;;;;;;;;5041120;28;20043;-63
2022/08/12 13:41:08;;;;;;;5.53;1.77;;;;;;;;;;5050094;28;20467;-63
2022/08/12 13:43:34;;;;;;;6.25;1.80;;;;;;;;;;5058281;28;22787;-64
2022/08/12 13:46:01;;;;;;;7.82;2.42;;;;;;;;;;5050391;28;20052;-65
2022/08/12 13:48:28;;;;;;;5.28;1.90;;;;;;;;;;5046218;28;20028;-63
2022/08/12 13:50:56;;;;;;;6.97;1.98;;;;;;;;;;5042508;28;20135;-64
2022/08/12 13:53:22;;;;;;;7.00;2.25;;;;;;;;;;5043145;28;20454;-67
2022/08/12 13:55:50;;;;;;;5.60;1.75;;;;;;;;;;5047390;28;20561;-64
2022/08/12 13:58:17;;;;;;;9.07;2.10;;;;;;;;;;5039003;28;20032;-65
2022/08/12 14:00:44;;;;;;;4.97;1.70;;;;;;;;;;5040978;28;20028;-66
2022/08/12 14:03:14;;;;;;;6.30;1.88;;;;;;;;;;5041188;28;20173;-65
2022/08/12 14:05:41;;;;;;;6.45;2.00;;;;;;;;;;5042245;28;20364;-65
2022/08/12 14:08:09;;;;;;;6.93;2.15;;;;;;;;;;5045948;28;20110;-65
2022/08/12 14:10:37;;;;;;;7.03;1.88;;;;;;;;;;5040597;28;21177;-65
2022/08/12 14:13:15;;;;;;;5.40;1.67;;;;;;;;;;5045285;28;20577;-65
2022/08/12 14:15:46;;;;;;;8.25;2.03;;;;;;;;;;5048748;28;20138;-65
2022/08/12 14:18:18;;;;;;;5.05;1.90;;;;;;;;;;5049199;28;20087;-65
2022/08/12 14:20:56;;;;;;;7.00;2.15;;;;;;;;;;5043136;28;20165;-64
2022/08/12 14:23:24;;;;;;;7.18;2.00;;;;;;;;;;5058383;28;20562;-64
2022/08/12 14:25:50;;;;;;;5.97;1.75;;;;;;;;;;5044326;28;20475;-65
2022/08/12 14:28:18;;;;;;;7.75;2.03;;;;;;;;;;5040452;28;20423;-64
2022/08/12 14:31:04;;;;;;;4.88;2.05;;;;;;;;;;5044813;28;20032;-64
2022/08/12 14:33:32;;;;;;;6.93;2.13;;;;;;;;;;5043773;28;20763;-65
2022/08/12 14:35:59;;;;;;;5.50;2.03;;;;;;;;;;5047153;28;20079;-64
2022/08/12 14:38:27;;;;;;;5.38;1.77;;;;;;;;;;5056367;28;21287;-64
2022/08/12 14:40:58;;;;;;;4.68;1.70;;;;;;;;;;5043002;28;20020;-63
2022/08/12 14:43:32;;;;;;;5.72;1.85;;;;;;;;;;5039475;28;20170;-64
2022/08/12 14:46:01;;;;;;;7.70;2.20;;;;;;;;;;5044753;28;21394;-64
2022/08/12 14:48:31;;;;;;;5.03;1.77;;;;;;;;;;5039856;28;20311;-66
2022/08/12 14:50:57;;;;;;;6.68;2.13;;;;;;;;;;5040778;28;20046;-65
2022/08/12 14:53:24;;;;;;;8.20;2.03;;;;;;;;;;5039282;28;20063;-65
2022/08/12 14:55:50;;;;;;;8.00;1.83;;;;;;;;;;5041627;28;20040;-64
2022/08/12 14:58:17;;;;;;;6.95;2.15;;;;;;;;;;5038165;28;20477;-64
2022/08/12 15:03:29;;;;;;;7.13;2.00;;;;;;;;;;5040137;28;20132;-64
2022/08/12 15:06:00;;;;;;;6.13;2.00;;;;;;;;;;5042053;28;20036;-63
2022/08/12 15:08:32;;;;;;;6.35;1.60;;;;;;;;;;5041401;28;20032;-65
2022/08/12 15:11:01;;;;;;;6.03;1.98;;;;;;;;;;5042006;28;20413;-64
2022/08/12 15:13:30;;;;;;;8.70;1.90;;;;;;;;;;5044017;28;20033;-66
2022/08/12 15:15:56;;;;;;;6.18;2.10;;;;;;;;;;5046089;28;20485;-67
2022/08/12 15:18:23;;;;;;;6.43;1.90;;;;;;;;;;5035675;28;20490;-66
2022/08/12 15:20:54;;;;;;;5.63;1.90;;;;;;;;;;5040220;28;20901;-64
2022/08/12 15:23:23;;;;;;;8.68;1.98;;;;;;;;;;5037077;28;20071;-64
2022/08/12 15:25:53;;;;;;;5.93;2.10;;;;;;;;;;5041141;28;20139;-65
2022/08/12 15:28:20;;;;;;;5.28;1.88;;;;;;;;;;5042791;28;20419;-65
2022/08/12 15:30:46;;;;;;;5.13;1.73;;;;;;;;;;5045987;28;20032;-64
2022/08/12 15:33:12;;;;;;;8.00;2.40;;;;;;;;;;5044962;28;20031;-64
2022/08/12 15:35:39;;;;;;;6.95;2.28;;;;;;;;;;5040609;28;20529;-65
2022/08/12 15:38:06;;;;;;;7.30;1.85;;;;;;;;;;5036636;28;20033;-63
2022/08/12 15:40:35;;;;;;;4.88;2.10;;;;;;;;;;5033941;28;20116;-66
2022/08/12 15:43:03;;;;;;;9.70;2.03;;;;;;;;;;5043743;28;20070;-63
2022/08/12 15:45:30;;;;;;;6.35;2.30;;;;;;;;;;5053458;28;20529;-64
2022/08/12 15:47:56;;;;;;;6.60;1.95;;;;;;;;;;5044345;28;20043;-65
2022/08/12 15:50:24;;;;;;;6.25;1.92;;;;;;;;;;5037273;28;20051;-67
2022/08/12 15:52:50;;;;;;;7.13;2.17;;;;;;;;;;5039155;28;20028;-65
2022/08/12 15:55:17;;;;;;;6.43;1.98;;;;;;;;;;5038678;28;20135;-64
2022/08/12 15:57:53;;;;;;;6.05;1.85;;;;;;;;;;5039360;28;20019;-64
2022/08/12 16:00:36;;;;;;;9.93;2.30;;;;;;;;;;5031380;28;20392;-65
2022/08/12 16:03:03;;;;;;;6.60;1.83;;;;;;;;;;5037322;28;20028;-64
2022/08/12 16:05:32;;;;;;;8.82;2.15;;;;;;;;;;5036669;28;20024;-64
2022/08/12 16:07:58;;;;;;;5.80;1.70;;;;;;;;;;5042925;28;20716;-64
2022/08/12 16:10:26;;;;;;;5.97;1.80;;;;;;;;;;5039028;28;20390;-64
2022/08/12 16:12:55;;;;;;;5.72;1.88;;;;;;;;;;5041088;28;20640;-65
2022/08/12 16:15:22;;;;;;;8.05;1.95;;;;;;;;;;5039122;28;20043;-64
2022/08/12 16:17:48;;;;;;;6.63;2.03;;;;;;;;;;5037285;28;20084;-64
2022/08/12 16:20:21;;;;;;;8.38;2.38;;;;;;;;;;5039944;28;20031;-65
2022/08/12 16:22:48;;;;;;;5.15;2.00;;;;;;;;;;5042291;28;20029;-65
2022/08/12 16:25:15;;;;;;;8.18;2.17;;;;;;;;;;5043720;28;20143;-64
2022/08/12 16:27:41;;;;;;;7.88;2.10;;;;;;;;;;5037685;28;20037;-65
2022/08/12 16:30:08;;;;;;;7.75;2.28;;;;;;;;;;5040001;28;20478;-65
2022/08/12 16:32:35;;;;;;;7.40;1.85;;;;;;;;;;5040245;28;20083;-64
2022/08/12 16:35:06;;;;;;;5.10;1.70;;;;;;;;;;5044892;28;20347;-64
2022/08/12 16:37:33;;;;;;;4.93;1.80;;;;;;;;;;5040164;28;20132;-65